Cockeysville Hunt Valley, Maryland
Current Conditions -  °F | °C
As of 2:54 AM on Friday 31 Oct 2014 (Local Time) from KMTN Reporting Station
Overcast Overcast  
Wind Chill: 46°   Ceiling: 6000
Heat Index: 46°   Visibility: 10mi
Dew Point: 43°   Wind: 0mph
Humidity: 87%   Direction: NA
Pressure: 30.04"   Gusts: NA
Location:  39.4808°N, 76.6448°W
Report Text: KMTN 310654Z AUTO 00000KT 10SM OVC060 08/06 A3004 RMK AO2
Loading
Personal Weather Stations






























Interactive Weather Map
Tropical Storm Tracking
New forecast layout! Learn more

10-Day Weather Forecast

Advertisements
Track Severe Weather on mobile